createdAt,value
2022-12-27T09:19:12.108Z,5.90
2022-12-27T09:21:45.112Z,5.60
2022-12-27T09:24:16.743Z,5.50
2022-12-27T09:26:48.443Z,5.70
2022-12-27T09:29:20.099Z,5.70
2022-12-27T09:31:51.740Z,5.70
2022-12-27T09:34:23.413Z,5.80
2022-12-27T09:36:56.442Z,5.80
2022-12-27T09:39:28.093Z,6.00
2022-12-27T09:44:56.365Z,6.10
2022-12-27T09:47:29.856Z,6.10
2022-12-27T09:50:03.144Z,6.10
2022-12-27T09:52:37.035Z,6.20
2022-12-27T09:55:12.424Z,6.20
2022-12-27T09:57:45.177Z,6.30
2022-12-27T10:00:18.077Z,6.30
2022-12-27T10:02:50.012Z,6.30
2022-12-27T10:05:23.608Z,6.30
2022-12-27T10:08:03.101Z,6.40
2022-12-27T10:10:41.387Z,6.50
2022-12-27T10:13:23.130Z,6.50
2022-12-27T10:16:00.308Z,6.60
2022-12-27T10:18:38.142Z,6.60
2022-12-27T10:21:13.544Z,6.70
2022-12-27T10:23:48.302Z,6.80
2022-12-27T10:26:20.148Z,6.80
2022-12-27T10:28:57.160Z,6.90
2022-12-27T10:31:29.878Z,7.00
2022-12-27T10:34:04.007Z,7.00
2022-12-27T10:36:39.428Z,7.10
2022-12-27T10:39:15.628Z,7.10
2022-12-27T10:41:53.204Z,7.20
2022-12-27T10:44:24.908Z,7.20
2022-12-27T10:46:56.646Z,7.20
2022-12-27T10:49:28.966Z,7.30
2022-12-27T10:52:07.326Z,7.40
2022-12-27T10:54:51.389Z,7.50
2022-12-27T10:57:25.733Z,7.50
2022-12-27T11:00:15.368Z,7.60
2022-12-27T11:02:50.936Z,7.70
2022-12-27T11:05:23.891Z,7.80
2022-12-27T11:07:55.581Z,7.80
2022-12-27T11:10:29.055Z,7.80
2022-12-27T11:13:01.452Z,8.00
2022-12-27T11:15:36.110Z,8.10
2022-12-27T11:18:10.198Z,8.20
2022-12-27T11:20:44.717Z,8.40
2022-12-27T11:23:16.952Z,8.50
2022-12-27T11:25:52.871Z,8.60
2022-12-27T11:28:29.246Z,8.80
2022-12-27T11:31:02.127Z,8.80
2022-12-27T11:33:34.975Z,8.80
2022-12-27T11:36:07.594Z,8.90
2022-12-27T11:38:39.945Z,8.90
2022-12-27T11:41:15.095Z,8.90
2022-12-27T11:43:48.446Z,9.00
2022-12-27T11:46:24.474Z,9.00
2022-12-27T11:48:56.963Z,9.20
2022-12-27T11:52:03.371Z,9.10
2022-12-27T11:55:12.840Z,9.10
2022-12-27T11:58:03.004Z,9.20
2022-12-27T12:00:37.637Z,9.30
2022-12-27T12:03:33.475Z,9.20
2022-12-27T12:06:09.823Z,9.20
2022-12-27T12:09:15.251Z,9.40
2022-12-27T12:11:55.589Z,9.50
2022-12-27T12:14:42.607Z,9.50
2022-12-27T12:17:39.390Z,9.60
2022-12-27T12:20:25.253Z,9.70
2022-12-27T12:23:06.184Z,9.80
2022-12-27T12:26:00.058Z,9.80
2022-12-27T12:28:59.650Z,9.70
2022-12-27T12:32:08.553Z,9.70
2022-12-27T12:34:53.257Z,9.70
2022-12-27T12:37:34.638Z,9.70
2022-12-27T12:40:29.898Z,9.70
2022-12-27T12:43:09.791Z,9.80
2022-12-27T12:45:56.161Z,9.70
2022-12-27T12:48:45.287Z,9.70
2022-12-27T12:51:34.983Z,9.70
2022-12-27T12:54:23.524Z,9.60
2022-12-27T12:57:01.946Z,9.60
2022-12-27T12:59:56.664Z,9.50
2022-12-27T13:02:41.002Z,9.50
2022-12-27T13:05:13.928Z,9.40
2022-12-27T13:07:56.146Z,9.40
2022-12-27T13:10:42.981Z,9.50
2022-12-27T13:13:17.439Z,9.50
2022-12-27T13:15:54.988Z,9.60
2022-12-27T13:18:30.604Z,9.60
2022-12-27T13:21:16.740Z,9.80
2022-12-27T13:23:56.642Z,9.80
2022-12-27T13:26:34.416Z,9.90
2022-12-27T13:29:25.274Z,9.90
2022-12-27T13:31:59.828Z,9.90
2022-12-27T13:34:36.902Z,9.80
2022-12-27T13:37:15.071Z,9.90
2022-12-27T13:39:56.971Z,9.80
2022-12-27T13:42:56.291Z,9.70
2022-12-27T13:45:43.202Z,9.70
2022-12-27T13:48:20.371Z,9.70
2022-12-27T13:50:56.754Z,9.90
2022-12-27T13:54:18.027Z,9.60
2022-12-27T13:56:55.380Z,9.60
2022-12-27T13:59:39.075Z,9.50
2022-12-27T14:02:23.245Z,9.50
2022-12-27T14:05:35.547Z,9.50
2022-12-27T14:08:11.323Z,10.10
2022-12-27T14:10:43.829Z,9.50
2022-12-27T14:13:22.543Z,9.60
2022-12-27T14:16:17.662Z,9.50
2022-12-27T14:18:58.783Z,9.50
2022-12-27T14:21:59.905Z,9.40
2022-12-27T14:25:00.321Z,9.40
2022-12-27T14:28:11.950Z,9.40
2022-12-27T14:31:40.747Z,9.30
2022-12-27T14:34:33.927Z,9.40
2022-12-27T14:37:28.450Z,9.40
2022-12-27T14:40:44.051Z,9.40
2022-12-27T14:43:33.828Z,9.30
2022-12-27T14:46:27.696Z,9.30
2022-12-27T14:49:20.430Z,9.30
2022-12-27T14:52:29.056Z,9.20
2022-12-27T14:55:39.676Z,9.20
2022-12-27T14:58:22.129Z,9.20
2022-12-27T15:01:06.102Z,9.20
2022-12-27T15:03:53.029Z,9.10
2022-12-27T15:06:53.492Z,9.10
2022-12-27T15:09:29.638Z,9.00
2022-12-27T15:12:18.004Z,9.00
2022-12-27T15:15:03.146Z,8.90
2022-12-27T15:17:45.790Z,8.90
2022-12-27T15:20:26.105Z,8.80
2022-12-27T15:23:01.958Z,8.80
2022-12-27T15:25:43.126Z,8.70
2022-12-27T15:28:18.803Z,8.80
2022-12-27T15:30:52.585Z,8.60
2022-12-27T15:33:26.994Z,8.60
2022-12-27T15:36:00.851Z,8.50
2022-12-27T15:38:46.148Z,8.40
2022-12-27T15:41:31.297Z,8.40
2022-12-27T15:44:30.524Z,8.30
2022-12-27T15:47:34.840Z,8.30
2022-12-27T15:50:28.569Z,8.10
2022-12-27T15:53:19.234Z,8.10
2022-12-27T15:56:06.465Z,8.00
2022-12-27T15:58:38.684Z,8.00
2022-12-27T16:01:29.997Z,7.90
2022-12-27T16:04:11.573Z,7.80
2022-12-27T16:06:50.841Z,7.90
2022-12-27T16:09:34.271Z,7.80
2022-12-27T16:12:09.151Z,7.70
2022-12-27T16:14:41.561Z,7.70
2022-12-27T16:17:27.184Z,7.70
2022-12-27T16:20:10.144Z,7.60
2022-12-27T16:22:42.672Z,7.60
2022-12-27T16:25:31.528Z,7.50
2022-12-27T16:28:05.620Z,7.60
2022-12-27T16:30:42.763Z,7.50
2022-12-27T16:33:27.938Z,7.50
2022-12-27T16:36:21.286Z,7.50
2022-12-27T16:39:02.812Z,7.40
2022-12-27T16:41:41.974Z,7.40
2022-12-27T16:44:16.742Z,7.30
2022-12-27T16:46:56.970Z,7.40
2022-12-27T16:49:59.027Z,7.40
2022-12-27T16:52:47.823Z,7.30
2022-12-27T16:55:34.747Z,7.30
2022-12-27T16:58:20.621Z,7.30
2022-12-27T17:00:52.577Z,7.20
2022-12-27T17:03:41.793Z,7.10
2022-12-27T17:06:50.983Z,7.00
2022-12-27T17:09:42.234Z,6.90
2022-12-27T17:14:57.432Z,6.80
2022-12-27T17:17:29.106Z,6.80
2022-12-27T17:20:03.344Z,6.70
2022-12-27T17:22:37.739Z,6.60
2022-12-27T17:25:14.338Z,6.60
2022-12-27T17:27:54.237Z,6.60
2022-12-27T17:30:26.079Z,6.40
2022-12-27T17:33:11.727Z,6.50
2022-12-27T17:35:50.886Z,6.40
2022-12-27T17:38:31.165Z,6.30
2022-12-27T17:41:11.937Z,6.30
2022-12-27T17:43:51.116Z,6.40
2022-12-27T17:46:29.047Z,6.40
2022-12-27T17:49:00.713Z,6.30
2022-12-27T17:51:32.403Z,6.20
2022-12-27T17:54:20.955Z,6.40
2022-12-27T17:56:56.435Z,6.30
2022-12-27T17:59:28.735Z,6.10
2022-12-27T18:02:03.865Z,6.10
2022-12-27T18:04:36.474Z,6.00
2022-12-27T18:07:09.754Z,6.20
2022-12-27T18:09:43.801Z,6.10
2022-12-27T18:12:18.796Z,6.00
2022-12-27T18:14:53.531Z,5.90
2022-12-27T18:17:28.974Z,6.00
2022-12-27T18:20:00.894Z,5.90
2022-12-27T18:22:32.597Z,5.90
2022-12-27T18:25:20.347Z,5.90
2022-12-27T18:27:58.241Z,6.00
2022-12-27T18:30:32.887Z,6.40
2022-12-27T18:33:04.582Z,6.00
2022-12-27T18:35:36.433Z,6.00
2022-12-27T18:38:08.101Z,6.10
2022-12-27T18:40:41.125Z,6.10
2022-12-27T18:43:13.825Z,6.20
2022-12-27T18:45:45.523Z,6.20
2022-12-27T18:48:17.309Z,6.10
2022-12-27T18:50:50.503Z,6.20
2022-12-27T18:53:22.893Z,6.20
2022-12-27T18:55:59.966Z,6.20
2022-12-27T18:58:31.939Z,6.10
2022-12-27T19:01:05.132Z,6.10
2022-12-27T19:03:40.894Z,5.90
2022-12-27T19:06:12.884Z,6.10
2022-12-27T19:08:45.785Z,5.90
2022-12-27T19:11:20.284Z,6.00
2022-12-27T19:13:52.866Z,5.90
2022-12-27T19:16:25.591Z,5.90
2022-12-27T19:18:58.325Z,5.80
2022-12-27T19:21:31.901Z,5.80
2022-12-27T19:24:19.022Z,5.80
2022-12-27T19:26:52.187Z,5.70
2022-12-27T19:29:25.267Z,5.60
2022-12-27T19:31:57.862Z,5.60
2022-12-27T19:34:31.026Z,5.70
2022-12-27T19:37:02.704Z,5.60
2022-12-27T19:39:35.198Z,5.70
2022-12-27T19:42:10.976Z,5.60
2022-12-27T19:44:42.657Z,5.60
2022-12-27T19:47:14.353Z,5.50
2022-12-27T19:49:46.047Z,5.50
2022-12-27T19:52:19.455Z,5.50
2022-12-27T19:54:51.934Z,5.50
2022-12-27T19:57:24.964Z,5.50
2022-12-27T19:59:56.997Z,5.40
2022-12-27T20:02:28.921Z,5.50
2022-12-27T20:05:00.678Z,5.40
2022-12-27T20:07:32.375Z,5.40
2022-12-27T20:10:04.830Z,5.40
2022-12-27T20:12:37.875Z,5.40
2022-12-27T20:15:10.356Z,5.40
2022-12-27T20:17:44.973Z,5.30
2022-12-27T20:20:17.113Z,5.30
2022-12-27T20:22:48.788Z,5.30
2022-12-27T20:25:20.463Z,5.30
2022-12-27T20:27:53.472Z,5.30
2022-12-27T20:30:25.180Z,5.30
2022-12-27T20:32:56.930Z,5.30
2022-12-27T20:35:28.760Z,5.30
2022-12-27T20:38:00.530Z,5.30
2022-12-27T20:40:32.416Z,5.30
2022-12-27T20:43:05.450Z,5.30
2022-12-27T20:45:37.254Z,5.20
2022-12-27T20:48:08.984Z,5.40
2022-12-27T20:50:40.842Z,5.20
2022-12-27T20:53:14.318Z,5.20
2022-12-27T20:55:46.002Z,5.20
2022-12-27T20:58:19.014Z,5.20
2022-12-27T21:00:50.706Z,5.10
2022-12-27T21:03:22.460Z,5.20
2022-12-27T21:05:54.161Z,5.20
2022-12-27T21:08:25.817Z,5.20
2022-12-27T21:10:57.548Z,5.20
2022-12-27T21:13:30.795Z,5.20
2022-12-27T21:16:02.538Z,5.20
2022-12-27T21:21:07.387Z,5.20
2022-12-27T21:23:39.184Z,5.10
2022-12-27T21:26:11.626Z,5.20
2022-12-27T21:28:44.657Z,5.20
2022-12-27T21:31:16.668Z,5.20
2022-12-27T21:33:48.453Z,5.20
2022-12-27T21:36:21.028Z,4.90
2022-12-27T21:38:52.740Z,5.20
2022-12-27T21:41:25.064Z,5.20
2022-12-27T21:43:58.126Z,5.40
2022-12-27T21:46:30.570Z,5.40
2022-12-27T21:49:02.941Z,5.50
2022-12-27T21:51:34.968Z,5.50
2022-12-27T21:54:06.730Z,5.40
2022-12-27T21:56:38.386Z,5.40
2022-12-27T21:59:11.390Z,5.50
2022-12-27T22:01:50.276Z,5.50
2022-12-27T22:04:23.872Z,5.50
2022-12-27T22:06:55.539Z,5.40
2022-12-27T22:09:27.229Z,5.60
2022-12-27T22:11:58.897Z,5.50
2022-12-27T22:14:36.826Z,5.60
2022-12-27T22:17:08.902Z,5.60
2022-12-27T22:19:40.551Z,5.60
2022-12-27T22:22:12.225Z,5.60
2022-12-27T22:24:43.896Z,5.50
2022-12-27T22:27:15.583Z,5.60
2022-12-27T22:29:48.570Z,5.60
2022-12-27T22:32:20.259Z,5.60
2022-12-27T22:37:24.001Z,5.80
2022-12-27T22:39:55.651Z,5.60
2022-12-27T22:42:27.367Z,5.60
2022-12-27T22:45:00.392Z,5.50
2022-12-27T22:47:32.137Z,5.60
2022-12-27T22:50:04.137Z,5.60
2022-12-27T22:52:35.804Z,5.60
2022-12-27T22:57:39.779Z,5.70
